sensor_id;sensor_type;location;lat;lon;timestamp;P1;durP1;ratioP1;P2;durP2;ratioP2
8708;SDS011;4391;48.678;9.280;2024-02-15T00:02:07;4.20;;;1.27;;
8708;SDS011;4391;48.678;9.280;2024-02-15T00:04:34;4.17;;;1.33;;
8708;SDS011;4391;48.678;9.280;2024-02-15T00:07:03;4.10;;;1.35;;
8708;SDS011;4391;48.678;9.280;2024-02-15T00:09:30;5.32;;;1.33;;
8708;SDS011;4391;48.678;9.280;2024-02-15T00:11:57;4.13;;;1.40;;
8708;SDS011;4391;48.678;9.280;2024-02-15T00:14:24;5.22;;;1.48;;
8708;SDS011;4391;48.678;9.280;2024-02-15T00:16:53;5.93;;;1.23;;
8708;SDS011;4391;48.678;9.280;2024-02-15T00:19:20;6.15;;;1.42;;
8708;SDS011;4391;48.678;9.280;2024-02-15T00:21:47;3.10;;;1.20;;
8708;SDS011;4391;48.678;9.280;2024-02-15T00:24:15;3.83;;;0.98;;
8708;SDS011;4391;48.678;9.280;2024-02-15T00:26:42;6.78;;;1.70;;
8708;SDS011;4391;48.678;9.280;2024-02-15T00:29:09;4.57;;;1.30;;
8708;SDS011;4391;48.678;9.280;2024-02-15T00:31:36;4.20;;;1.10;;
8708;SDS011;4391;48.678;9.280;2024-02-15T00:34:03;6.28;;;1.58;;
8708;SDS011;4391;48.678;9.280;2024-02-15T00:36:30;3.28;;;1.10;;
8708;SDS011;4391;48.678;9.280;2024-02-15T00:38:58;4.07;;;1.23;;
8708;SDS011;4391;48.678;9.280;2024-02-15T00:41:26;3.23;;;1.20;;
8708;SDS011;4391;48.678;9.280;2024-02-15T00:43:54;4.28;;;1.40;;
8708;SDS011;4391;48.678;9.280;2024-02-15T00:46:20;3.88;;;1.30;;
8708;SDS011;4391;48.678;9.280;2024-02-15T00:48:47;4.43;;;1.40;;
8708;SDS011;4391;48.678;9.280;2024-02-15T00:51:14;5.63;;;1.20;;
8708;SDS011;4391;48.678;9.280;2024-02-15T00:53:41;3.27;;;1.10;;
8708;SDS011;4391;48.678;9.280;2024-02-15T00:56:08;3.20;;;0.93;;
8708;SDS011;4391;48.678;9.280;2024-02-15T00:58:36;3.47;;;1.25;;
8708;SDS011;4391;48.678;9.280;2024-02-15T01:01:03;3.95;;;1.23;;
8708;SDS011;4391;48.678;9.280;2024-02-15T01:03:30;4.13;;;1.23;;
8708;SDS011;4391;48.678;9.280;2024-02-15T01:05:57;4.17;;;1.43;;
8708;SDS011;4391;48.678;9.280;2024-02-15T01:08:23;3.28;;;1.30;;
8708;SDS011;4391;48.678;9.280;2024-02-15T01:10:50;4.13;;;1.45;;
8708;SDS011;4391;48.678;9.280;2024-02-15T01:13:18;4.95;;;1.50;;
8708;SDS011;4391;48.678;9.280;2024-02-15T01:15:46;5.57;;;1.85;;
8708;SDS011;4391;48.678;9.280;2024-02-15T01:18:13;5.17;;;1.50;;
8708;SDS011;4391;48.678;9.280;2024-02-15T01:20:40;4.78;;;1.67;;
8708;SDS011;4391;48.678;9.280;2024-02-15T01:23:07;5.25;;;1.90;;
8708;SDS011;4391;48.678;9.280;2024-02-15T01:25:34;4.85;;;1.60;;
8708;SDS011;4391;48.678;9.280;2024-02-15T01:28:01;4.35;;;1.70;;
8708;SDS011;4391;48.678;9.280;2024-02-15T01:30:28;5.47;;;1.53;;
8708;SDS011;4391;48.678;9.280;2024-02-15T01:32:58;6.90;;;1.60;;
8708;SDS011;4391;48.678;9.280;2024-02-15T01:35:26;5.75;;;1.73;;
8708;SDS011;4391;48.678;9.280;2024-02-15T01:37:53;7.13;;;1.90;;
8708;SDS011;4391;48.678;9.280;2024-02-15T01:40:20;5.15;;;1.92;;
8708;SDS011;4391;48.678;9.280;2024-02-15T01:42:47;5.47;;;1.83;;
8708;SDS011;4391;48.678;9.280;2024-02-15T01:45:15;3.50;;;1.23;;
8708;SDS011;4391;48.678;9.280;2024-02-15T01:47:41;5.00;;;1.67;;
8708;SDS011;4391;48.678;9.280;2024-02-15T01:50:10;4.55;;;1.63;;
8708;SDS011;4391;48.678;9.280;2024-02-15T01:52:39;4.53;;;1.75;;
8708;SDS011;4391;48.678;9.280;2024-02-15T01:55:07;4.43;;;1.90;;
8708;SDS011;4391;48.678;9.280;2024-02-15T01:57:35;4.38;;;1.70;;
8708;SDS011;4391;48.678;9.280;2024-02-15T02:00:04;6.88;;;1.90;;
8708;SDS011;4391;48.678;9.280;2024-02-15T02:02:34;4.70;;;1.83;;
8708;SDS011;4391;48.678;9.280;2024-02-15T02:05:04;3.88;;;1.55;;
8708;SDS011;4391;48.678;9.280;2024-02-15T02:07:33;4.10;;;1.60;;
8708;SDS011;4391;48.678;9.280;2024-02-15T02:10:00;4.43;;;1.50;;
8708;SDS011;4391;48.678;9.280;2024-02-15T02:12:27;3.38;;;1.40;;
8708;SDS011;4391;48.678;9.280;2024-02-15T02:14:54;3.97;;;1.70;;
8708;SDS011;4391;48.678;9.280;2024-02-15T02:17:21;6.50;;;1.48;;
8708;SDS011;4391;48.678;9.280;2024-02-15T02:19:48;4.67;;;1.77;;
8708;SDS011;4391;48.678;9.280;2024-02-15T02:22:15;5.57;;;1.90;;
8708;SDS011;4391;48.678;9.280;2024-02-15T02:27:26;4.43;;;1.50;;
8708;SDS011;4391;48.678;9.280;2024-02-15T02:29:53;4.53;;;1.52;;
8708;SDS011;4391;48.678;9.280;2024-02-15T02:32:21;3.90;;;1.40;;
8708;SDS011;4391;48.678;9.280;2024-02-15T02:34:47;5.03;;;1.40;;
8708;SDS011;4391;48.678;9.280;2024-02-15T02:37:14;3.95;;;1.38;;
8708;SDS011;4391;48.678;9.280;2024-02-15T02:39:42;4.35;;;1.35;;
8708;SDS011;4391;48.678;9.280;2024-02-15T02:42:10;4.72;;;2.00;;
8708;SDS011;4391;48.678;9.280;2024-02-15T02:44:38;5.07;;;2.27;;
8708;SDS011;4391;48.678;9.280;2024-02-15T02:47:04;6.43;;;2.00;;
8708;SDS011;4391;48.678;9.280;2024-02-15T02:49:31;9.30;;;2.58;;
8708;SDS011;4391;48.678;9.280;2024-02-15T02:51:58;7.43;;;1.73;;
8708;SDS011;4391;48.678;9.280;2024-02-15T02:54:25;6.05;;;2.00;;
8708;SDS011;4391;48.678;9.280;2024-02-15T02:56:54;4.80;;;1.80;;
8708;SDS011;4391;48.678;9.280;2024-02-15T02:59:24;5.53;;;1.88;;
8708;SDS011;4391;48.678;9.280;2024-02-15T03:01:51;6.15;;;1.85;;
8708;SDS011;4391;48.678;9.280;2024-02-15T03:04:21;4.88;;;2.00;;
8708;SDS011;4391;48.678;9.280;2024-02-15T03:06:48;4.78;;;2.05;;
8708;SDS011;4391;48.678;9.280;2024-02-15T03:09:16;4.20;;;1.70;;
8708;SDS011;4391;48.678;9.280;2024-02-15T03:11:45;5.60;;;2.00;;
8708;SDS011;4391;48.678;9.280;2024-02-15T03:14:12;4.10;;;1.90;;
8708;SDS011;4391;48.678;9.280;2024-02-15T03:16:41;6.65;;;1.92;;
8708;SDS011;4391;48.678;9.280;2024-02-15T03:19:08;6.53;;;1.70;;
8708;SDS011;4391;48.678;9.280;2024-02-15T03:21:37;4.93;;;1.80;;
8708;SDS011;4391;48.678;9.280;2024-02-15T03:24:03;4.78;;;2.10;;
8708;SDS011;4391;48.678;9.280;2024-02-15T03:26:31;4.57;;;1.75;;
8708;SDS011;4391;48.678;9.280;2024-02-15T03:29:02;4.28;;;1.83;;
8708;SDS011;4391;48.678;9.280;2024-02-15T03:31:28;5.05;;;1.83;;
8708;SDS011;4391;48.678;9.280;2024-02-15T03:33:57;3.87;;;1.80;;
8708;SDS011;4391;48.678;9.280;2024-02-15T03:36:24;4.75;;;1.90;;
8708;SDS011;4391;48.678;9.280;2024-02-15T03:38:52;4.35;;;1.75;;
8708;SDS011;4391;48.678;9.280;2024-02-15T03:41:19;5.05;;;1.70;;
8708;SDS011;4391;48.678;9.280;2024-02-15T03:43:45;6.78;;;2.00;;
8708;SDS011;4391;48.678;9.280;2024-02-15T03:46:12;4.67;;;1.83;;
8708;SDS011;4391;48.678;9.280;2024-02-15T03:48:42;4.95;;;1.70;;
8708;SDS011;4391;48.678;9.280;2024-02-15T03:51:15;7.78;;;2.05;;
8708;SDS011;4391;48.678;9.280;2024-02-15T03:53:45;4.03;;;1.67;;
8708;SDS011;4391;48.678;9.280;2024-02-15T03:56:12;5.15;;;1.70;;
8708;SDS011;4391;48.678;9.280;2024-02-15T03:58:39;4.57;;;1.90;;
8708;SDS011;4391;48.678;9.280;2024-02-15T04:01:06;5.43;;;2.08;;
8708;SDS011;4391;48.678;9.280;2024-02-15T04:03:34;4.25;;;1.80;;
8708;SDS011;4391;48.678;9.280;2024-02-15T04:06:01;4.60;;;1.98;;
8708;SDS011;4391;48.678;9.280;2024-02-15T04:08:30;4.60;;;1.80;;
8708;SDS011;4391;48.678;9.280;2024-02-15T04:10:58;4.83;;;2.10;;
8708;SDS011;4391;48.678;9.280;2024-02-15T04:13:25;4.80;;;1.83;;
8708;SDS011;4391;48.678;9.280;2024-02-15T04:15:52;4.30;;;1.80;;
8708;SDS011;4391;48.678;9.280;2024-02-15T04:18:19;3.95;;;1.88;;
8708;SDS011;4391;48.678;9.280;2024-02-15T04:20:45;6.57;;;2.00;;
8708;SDS011;4391;48.678;9.280;2024-02-15T04:23:14;5.63;;;2.20;;
8708;SDS011;4391;48.678;9.280;2024-02-15T04:25:42;4.03;;;1.70;;
8708;SDS011;4391;48.678;9.280;2024-02-15T04:28:16;6.85;;;2.08;;
8708;SDS011;4391;48.678;9.280;2024-02-15T04:30:42;4.10;;;1.77;;
8708;SDS011;4391;48.678;9.280;2024-02-15T04:33:11;5.40;;;2.40;;
8708;SDS011;4391;48.678;9.280;2024-02-15T04:35:40;9.30;;;2.20;;
8708;SDS011;4391;48.678;9.280;2024-02-15T04:38:07;5.30;;;2.35;;
8708;SDS011;4391;48.678;9.280;2024-02-15T04:40:34;4.28;;;1.85;;
8708;SDS011;4391;48.678;9.280;2024-02-15T04:43:04;3.90;;;1.60;;
8708;SDS011;4391;48.678;9.280;2024-02-15T04:45:31;7.30;;;2.28;;
8708;SDS011;4391;48.678;9.280;2024-02-15T04:47:58;5.10;;;2.40;;
8708;SDS011;4391;48.678;9.280;2024-02-15T04:50:27;5.50;;;2.40;;
8708;SDS011;4391;48.678;9.280;2024-02-15T04:52:54;5.88;;;2.13;;
8708;SDS011;4391;48.678;9.280;2024-02-15T04:55:21;7.05;;;2.20;;
8708;SDS011;4391;48.678;9.280;2024-02-15T04:57:48;5.45;;;1.90;;
8708;SDS011;4391;48.678;9.280;2024-02-15T05:00:21;6.60;;;2.00;;
8708;SDS011;4391;48.678;9.280;2024-02-15T05:02:50;6.72;;;2.20;;
8708;SDS011;4391;48.678;9.280;2024-02-15T05:05:17;5.93;;;2.13;;
8708;SDS011;4391;48.678;9.280;2024-02-15T05:07:45;5.25;;;2.33;;
8708;SDS011;4391;48.678;9.280;2024-02-15T05:10:14;6.95;;;2.05;;
8708;SDS011;4391;48.678;9.280;2024-02-15T05:12:41;7.73;;;1.90;;
8708;SDS011;4391;48.678;9.280;2024-02-15T05:15:09;6.43;;;2.30;;
8708;SDS011;4391;48.678;9.280;2024-02-15T05:17:37;6.63;;;2.40;;
8708;SDS011;4391;48.678;9.280;2024-02-15T05:20:07;6.07;;;2.10;;
8708;SDS011;4391;48.678;9.280;2024-02-15T05:22:38;7.13;;;2.38;;
8708;SDS011;4391;48.678;9.280;2024-02-15T05:25:05;4.30;;;1.67;;
8708;SDS011;4391;48.678;9.280;2024-02-15T05:27:33;7.03;;;2.63;;
8708;SDS011;4391;48.678;9.280;2024-02-15T05:30:02;6.35;;;2.28;;
8708;SDS011;4391;48.678;9.280;2024-02-15T05:32:32;6.10;;;2.42;;
8708;SDS011;4391;48.678;9.280;2024-02-15T05:35:07;5.20;;;2.03;;
8708;SDS011;4391;48.678;9.280;2024-02-15T05:37:35;7.00;;;2.57;;
8708;SDS011;4391;48.678;9.280;2024-02-15T05:40:02;8.38;;;3.03;;
8708;SDS011;4391;48.678;9.280;2024-02-15T05:42:30;8.27;;;2.45;;
8708;SDS011;4391;48.678;9.280;2024-02-15T05:44:58;5.53;;;2.42;;
8708;SDS011;4391;48.678;9.280;2024-02-15T05:47:55;5.82;;;2.53;;
8708;SDS011;4391;48.678;9.280;2024-02-15T05:50:23;5.43;;;2.50;;
8708;SDS011;4391;48.678;9.280;2024-02-15T05:52:52;4.65;;;2.17;;
8708;SDS011;4391;48.678;9.280;2024-02-15T05:55:20;4.40;;;2.00;;
8708;SDS011;4391;48.678;9.280;2024-02-15T05:57:47;5.65;;;2.40;;
8708;SDS011;4391;48.678;9.280;2024-02-15T06:00:14;5.18;;;2.20;;
8708;SDS011;4391;48.678;9.280;2024-02-15T06:02:43;7.77;;;2.30;;
8708;SDS011;4391;48.678;9.280;2024-02-15T06:05:10;4.60;;;2.22;;
8708;SDS011;4391;48.678;9.280;2024-02-15T06:07:38;6.28;;;2.35;;
8708;SDS011;4391;48.678;9.280;2024-02-15T06:10:06;4.25;;;2.10;;
8708;SDS011;4391;48.678;9.280;2024-02-15T06:12:33;4.72;;;2.40;;
8708;SDS011;4391;48.678;9.280;2024-02-15T06:15:03;5.10;;;2.67;;
8708;SDS011;4391;48.678;9.280;2024-02-15T06:17:30;6.63;;;3.15;;
8708;SDS011;4391;48.678;9.280;2024-02-15T06:19:57;7.85;;;2.70;;
8708;SDS011;4391;48.678;9.280;2024-02-15T06:22:24;7.10;;;3.15;;
8708;SDS011;4391;48.678;9.280;2024-02-15T06:24:53;5.65;;;3.05;;
8708;SDS011;4391;48.678;9.280;2024-02-15T06:27:20;6.30;;;2.87;;
8708;SDS011;4391;48.678;9.280;2024-02-15T06:29:49;7.28;;;3.15;;
8708;SDS011;4391;48.678;9.280;2024-02-15T06:32:33;6.10;;;2.47;;
8708;SDS011;4391;48.678;9.280;2024-02-15T06:35:17;10.70;;;3.47;;
8708;SDS011;4391;48.678;9.280;2024-02-15T06:38:01;7.03;;;3.75;;
8708;SDS011;4391;48.678;9.280;2024-02-15T06:40:47;12.53;;;3.00;;
8708;SDS011;4391;48.678;9.280;2024-02-15T06:43:14;6.80;;;2.80;;
8708;SDS011;4391;48.678;9.280;2024-02-15T06:45:41;8.25;;;2.85;;
8708;SDS011;4391;48.678;9.280;2024-02-15T06:48:11;6.07;;;2.97;;
8708;SDS011;4391;48.678;9.280;2024-02-15T06:50:38;5.28;;;2.60;;
8708;SDS011;4391;48.678;9.280;2024-02-15T06:53:05;6.93;;;2.93;;
8708;SDS011;4391;48.678;9.280;2024-02-15T06:55:33;8.73;;;3.38;;
8708;SDS011;4391;48.678;9.280;2024-02-15T06:58:03;8.90;;;2.75;;
8708;SDS011;4391;48.678;9.280;2024-02-15T07:00:30;7.53;;;2.58;;
8708;SDS011;4391;48.678;9.280;2024-02-15T07:03:01;8.00;;;2.85;;
8708;SDS011;4391;48.678;9.280;2024-02-15T07:05:29;6.60;;;2.67;;
8708;SDS011;4391;48.678;9.280;2024-02-15T07:07:56;8.45;;;2.65;;
8708;SDS011;4391;48.678;9.280;2024-02-15T07:10:23;9.45;;;2.40;;
8708;SDS011;4391;48.678;9.280;2024-02-15T07:12:50;5.20;;;2.67;;
8708;SDS011;4391;48.678;9.280;2024-02-15T07:15:18;6.60;;;2.90;;
8708;SDS011;4391;48.678;9.280;2024-02-15T07:17:45;10.97;;;3.80;;
8708;SDS011;4391;48.678;9.280;2024-02-15T07:20:13;10.50;;;4.55;;
8708;SDS011;4391;48.678;9.280;2024-02-15T07:22:42;10.45;;;4.70;;
8708;SDS011;4391;48.678;9.280;2024-02-15T07:25:10;10.32;;;5.07;;
8708;SDS011;4391;48.678;9.280;2024-02-15T07:27:37;11.48;;;5.55;;
8708;SDS011;4391;48.678;9.280;2024-02-15T07:30:04;11.17;;;4.73;;
8708;SDS011;4391;48.678;9.280;2024-02-15T07:32:35;10.45;;;4.70;;
8708;SDS011;4391;48.678;9.280;2024-02-15T07:35:02;9.65;;;4.00;;
8708;SDS011;4391;48.678;9.280;2024-02-15T07:37:30;9.32;;;4.70;;
8708;SDS011;4391;48.678;9.280;2024-02-15T07:39:57;7.40;;;4.30;;
8708;SDS011;4391;48.678;9.280;2024-02-15T07:42:24;9.53;;;3.80;;
8708;SDS011;4391;48.678;9.280;2024-02-15T07:44:51;7.53;;;3.95;;
8708;SDS011;4391;48.678;9.280;2024-02-15T07:47:18;8.95;;;3.70;;
8708;SDS011;4391;48.678;9.280;2024-02-15T07:49:51;8.85;;;2.83;;
8708;SDS011;4391;48.678;9.280;2024-02-15T07:52:17;5.13;;;2.42;;
8708;SDS011;4391;48.678;9.280;2024-02-15T07:54:45;6.37;;;2.20;;
8708;SDS011;4391;48.678;9.280;2024-02-15T07:57:11;6.25;;;2.50;;
8708;SDS011;4391;48.678;9.280;2024-02-15T07:59:39;6.35;;;2.50;;
8708;SDS011;4391;48.678;9.280;2024-02-15T08:02:07;8.00;;;2.60;;
8708;SDS011;4391;48.678;9.280;2024-02-15T08:04:34;5.50;;;2.30;;
8708;SDS011;4391;48.678;9.280;2024-02-15T08:07:07;5.63;;;2.17;;
8708;SDS011;4391;48.678;9.280;2024-02-15T08:09:36;8.30;;;2.58;;
8708;SDS011;4391;48.678;9.280;2024-02-15T08:12:03;4.60;;;2.20;;
8708;SDS011;4391;48.678;9.280;2024-02-15T08:14:30;5.40;;;2.60;;
8708;SDS011;4391;48.678;9.280;2024-02-15T08:16:57;6.57;;;2.72;;
8708;SDS011;4391;48.678;9.280;2024-02-15T08:19:24;6.07;;;2.23;;
8708;SDS011;4391;48.678;9.280;2024-02-15T08:21:54;5.10;;;2.17;;
8708;SDS011;4391;48.678;9.280;2024-02-15T08:24:22;8.57;;;2.03;;
8708;SDS011;4391;48.678;9.280;2024-02-15T08:26:49;4.95;;;2.00;;
8708;SDS011;4391;48.678;9.280;2024-02-15T08:29:17;4.57;;;1.98;;
8708;SDS011;4391;48.678;9.280;2024-02-15T08:31:44;5.90;;;2.20;;
8708;SDS011;4391;48.678;9.280;2024-02-15T08:34:12;5.55;;;2.55;;
8708;SDS011;4391;48.678;9.280;2024-02-15T08:36:39;6.85;;;2.42;;
8708;SDS011;4391;48.678;9.280;2024-02-15T08:39:06;5.30;;;1.98;;
8708;SDS011;4391;48.678;9.280;2024-02-15T08:41:38;4.80;;;2.10;;
8708;SDS011;4391;48.678;9.280;2024-02-15T08:44:05;5.80;;;2.77;;
8708;SDS011;4391;48.678;9.280;2024-02-15T08:46:36;7.20;;;2.65;;
8708;SDS011;4391;48.678;9.280;2024-02-15T08:49:03;6.18;;;2.30;;
8708;SDS011;4391;48.678;9.280;2024-02-15T08:51:30;7.95;;;2.10;;
8708;SDS011;4391;48.678;9.280;2024-02-15T08:53:57;5.63;;;1.70;;
8708;SDS011;4391;48.678;9.280;2024-02-15T08:56:25;6.40;;;2.23;;
8708;SDS011;4391;48.678;9.280;2024-02-15T08:58:53;8.07;;;1.88;;
8708;SDS011;4391;48.678;9.280;2024-02-15T09:01:20;7.43;;;2.65;;
8708;SDS011;4391;48.678;9.280;2024-02-15T09:03:47;6.20;;;1.80;;
8708;SDS011;4391;48.678;9.280;2024-02-15T09:06:14;7.63;;;2.10;;
8708;SDS011;4391;48.678;9.280;2024-02-15T09:08:41;4.07;;;1.83;;
8708;SDS011;4391;48.678;9.280;2024-02-15T09:11:08;7.38;;;2.35;;
8708;SDS011;4391;48.678;9.280;2024-02-15T09:13:37;7.82;;;2.17;;
8708;SDS011;4391;48.678;9.280;2024-02-15T09:16:05;6.90;;;3.00;;
8708;SDS011;4391;48.678;9.280;2024-02-15T09:18:32;6.43;;;2.60;;
8708;SDS011;4391;48.678;9.280;2024-02-15T09:20:59;6.17;;;2.87;;
8708;SDS011;4391;48.678;9.280;2024-02-15T09:23:26;5.80;;;2.55;;
8708;SDS011;4391;48.678;9.280;2024-02-15T09:25:54;6.05;;;3.05;;
8708;SDS011;4391;48.678;9.280;2024-02-15T09:28:21;6.75;;;2.53;;
8708;SDS011;4391;48.678;9.280;2024-02-15T09:30:48;11.68;;;2.85;;
8708;SDS011;4391;48.678;9.280;2024-02-15T09:33:18;6.50;;;2.83;;
8708;SDS011;4391;48.678;9.280;2024-02-15T09:35:45;6.30;;;2.30;;
8708;SDS011;4391;48.678;9.280;2024-02-15T09:38:13;6.30;;;2.15;;
8708;SDS011;4391;48.678;9.280;2024-02-15T09:40:42;6.97;;;2.53;;
8708;SDS011;4391;48.678;9.280;2024-02-15T09:43:09;5.03;;;1.92;;
8708;SDS011;4391;48.678;9.280;2024-02-15T09:45:38;7.43;;;2.73;;
8708;SDS011;4391;48.678;9.280;2024-02-15T09:48:05;4.18;;;2.00;;
8708;SDS011;4391;48.678;9.280;2024-02-15T09:50:35;6.90;;;2.15;;
8708;SDS011;4391;48.678;9.280;2024-02-15T09:53:07;12.65;;;2.45;;
8708;SDS011;4391;48.678;9.280;2024-02-15T09:55:35;5.47;;;2.58;;
8708;SDS011;4391;48.678;9.280;2024-02-15T09:58:02;8.87;;;2.40;;
8708;SDS011;4391;48.678;9.280;2024-02-15T10:00:31;6.40;;;2.13;;
8708;SDS011;4391;48.678;9.280;2024-02-15T10:03:00;7.00;;;2.30;;
8708;SDS011;4391;48.678;9.280;2024-02-15T10:05:28;7.00;;;2.20;;
8708;SDS011;4391;48.678;9.280;2024-02-15T10:07:57;4.40;;;2.25;;
8708;SDS011;4391;48.678;9.280;2024-02-15T10:10:27;6.97;;;2.90;;
8708;SDS011;4391;48.678;9.280;2024-02-15T10:12:54;6.38;;;2.45;;
8708;SDS011;4391;48.678;9.280;2024-02-15T10:15:27;5.75;;;2.38;;
8708;SDS011;4391;48.678;9.280;2024-02-15T10:17:56;6.78;;;2.50;;
8708;SDS011;4391;48.678;9.280;2024-02-15T10:20:24;6.90;;;2.40;;
8708;SDS011;4391;48.678;9.280;2024-02-15T10:22:52;5.43;;;2.57;;
8708;SDS011;4391;48.678;9.280;2024-02-15T10:25:22;6.95;;;2.85;;
8708;SDS011;4391;48.678;9.280;2024-02-15T10:27:49;5.25;;;2.28;;
8708;SDS011;4391;48.678;9.280;2024-02-15T10:30:16;6.22;;;2.70;;
8708;SDS011;4391;48.678;9.280;2024-02-15T10:32:45;4.88;;;2.60;;
8708;SDS011;4391;48.678;9.280;2024-02-15T10:35:22;6.10;;;2.37;;
8708;SDS011;4391;48.678;9.280;2024-02-15T10:37:49;7.00;;;2.58;;
8708;SDS011;4391;48.678;9.280;2024-02-15T10:40:26;6.47;;;2.42;;
8708;SDS011;4391;48.678;9.280;2024-02-15T10:42:53;4.28;;;2.03;;
8708;SDS011;4391;48.678;9.280;2024-02-15T10:45:23;5.03;;;1.80;;
8708;SDS011;4391;48.678;9.280;2024-02-15T10:47:51;4.33;;;1.57;;
8708;SDS011;4391;48.678;9.280;2024-02-15T10:50:18;7.32;;;1.75;;
8708;SDS011;4391;48.678;9.280;2024-02-15T10:52:48;4.85;;;1.75;;
8708;SDS011;4391;48.678;9.280;2024-02-15T10:55:22;4.70;;;1.63;;
8708;SDS011;4391;48.678;9.280;2024-02-15T10:58:03;5.53;;;1.38;;
8708;SDS011;4391;48.678;9.280;2024-02-15T11:00:32;5.03;;;1.50;;
8708;SDS011;4391;48.678;9.280;2024-02-15T11:03:02;5.13;;;1.35;;
8708;SDS011;4391;48.678;9.280;2024-02-15T11:05:31;3.95;;;1.40;;
8708;SDS011;4391;48.678;9.280;2024-02-15T11:08:01;3.10;;;1.10;;
8708;SDS011;4391;48.678;9.280;2024-02-15T11:10:29;4.05;;;1.40;;
8708;SDS011;4391;48.678;9.280;2024-02-15T11:12:58;6.77;;;1.60;;
8708;SDS011;4391;48.678;9.280;2024-02-15T11:21:08;4.20;;;1.38;;
8708;SDS011;4391;48.678;9.280;2024-02-15T11:23:35;4.47;;;1.20;;
8708;SDS011;4391;48.678;9.280;2024-02-15T11:26:03;4.37;;;1.30;;
8708;SDS011;4391;48.678;9.280;2024-02-15T11:28:36;4.93;;;1.40;;
8708;SDS011;4391;48.678;9.280;2024-02-15T11:31:06;3.78;;;1.08;;
8708;SDS011;4391;48.678;9.280;2024-02-15T11:33:34;3.88;;;1.10;;
8708;SDS011;4391;48.678;9.280;2024-02-15T11:36:04;4.25;;;1.13;;
8708;SDS011;4391;48.678;9.280;2024-02-15T11:38:31;3.53;;;1.00;;
8708;SDS011;4391;48.678;9.280;2024-02-15T11:40:59;3.97;;;1.10;;
8708;SDS011;4391;48.678;9.280;2024-02-15T11:46:23;3.45;;;1.10;;
8708;SDS011;4391;48.678;9.280;2024-02-15T11:48:54;4.38;;;1.20;;
8708;SDS011;4391;48.678;9.280;2024-02-15T11:51:25;2.77;;;0.70;;
8708;SDS011;4391;48.678;9.280;2024-02-15T11:54:02;8.00;;;0.90;;
8708;SDS011;4391;48.678;9.280;2024-02-15T11:59:30;4.03;;;0.85;;
8708;SDS011;4391;48.678;9.280;2024-02-15T12:02:07;2.88;;;0.93;;
8708;SDS011;4391;48.678;9.280;2024-02-15T12:04:51;3.97;;;0.90;;
8708;SDS011;4391;48.678;9.280;2024-02-15T12:07:36;3.20;;;0.90;;
8708;SDS011;4391;48.678;9.280;2024-02-15T12:10:21;6.32;;;1.48;;
8708;SDS011;4391;48.678;9.280;2024-02-15T12:13:06;3.40;;;0.88;;
8708;SDS011;4391;48.678;9.280;2024-02-15T12:15:57;3.03;;;0.93;;
8708;SDS011;4391;48.678;9.280;2024-02-15T12:18:42;4.17;;;1.00;;
8708;SDS011;4391;48.678;9.280;2024-02-15T12:21:12;2.22;;;0.60;;
8708;SDS011;4391;48.678;9.280;2024-02-15T12:23:41;3.75;;;0.85;;
8708;SDS011;4391;48.678;9.280;2024-02-15T12:26:08;2.63;;;0.90;;
8708;SDS011;4391;48.678;9.280;2024-02-15T12:28:36;3.53;;;1.00;;
8708;SDS011;4391;48.678;9.280;2024-02-15T12:31:04;2.40;;;0.60;;
8708;SDS011;4391;48.678;9.280;2024-02-15T12:33:32;4.10;;;0.85;;
8708;SDS011;4391;48.678;9.280;2024-02-15T12:36:03;3.88;;;0.90;;
8708;SDS011;4391;48.678;9.280;2024-02-15T12:38:31;2.95;;;0.90;;
8708;SDS011;4391;48.678;9.280;2024-02-15T12:40:59;4.93;;;1.00;;
8708;SDS011;4391;48.678;9.280;2024-02-15T12:43:27;5.33;;;1.20;;
8708;SDS011;4391;48.678;9.280;2024-02-15T12:45:55;4.55;;;0.70;;
8708;SDS011;4391;48.678;9.280;2024-02-15T12:48:22;4.22;;;0.80;;
8708;SDS011;4391;48.678;9.280;2024-02-15T12:50:49;4.05;;;0.80;;
8708;SDS011;4391;48.678;9.280;2024-02-15T12:53:20;3.38;;;0.95;;
8708;SDS011;4391;48.678;9.280;2024-02-15T12:55:52;5.23;;;1.40;;
8708;SDS011;4391;48.678;9.280;2024-02-15T12:58:21;3.50;;;1.30;;
8708;SDS011;4391;48.678;9.280;2024-02-15T13:00:49;4.15;;;1.35;;
8708;SDS011;4391;48.678;9.280;2024-02-15T13:03:22;4.72;;;1.00;;
8708;SDS011;4391;48.678;9.280;2024-02-15T13:05:49;4.07;;;0.90;;
8708;SDS011;4391;48.678;9.280;2024-02-15T13:08:16;5.80;;;1.10;;
8708;SDS011;4391;48.678;9.280;2024-02-15T13:10:44;6.00;;;1.25;;
8708;SDS011;4391;48.678;9.280;2024-02-15T13:13:12;4.43;;;0.90;;
8708;SDS011;4391;48.678;9.280;2024-02-15T13:15:41;3.90;;;1.00;;
8708;SDS011;4391;48.678;9.280;2024-02-15T13:18:09;5.00;;;1.20;;
8708;SDS011;4391;48.678;9.280;2024-02-15T13:20:37;5.30;;;0.90;;
8708;SDS011;4391;48.678;9.280;2024-02-15T13:23:04;3.25;;;1.20;;
8708;SDS011;4391;48.678;9.280;2024-02-15T13:25:34;6.20;;;1.20;;
8708;SDS011;4391;48.678;9.280;2024-02-15T13:28:02;3.72;;;1.25;;
8708;SDS011;4391;48.678;9.280;2024-02-15T13:30:30;5.38;;;1.08;;
8708;SDS011;4391;48.678;9.280;2024-02-15T13:32:57;3.60;;;0.97;;
8708;SDS011;4391;48.678;9.280;2024-02-15T13:35:24;4.07;;;1.00;;
8708;SDS011;4391;48.678;9.280;2024-02-15T13:37:53;5.85;;;1.27;;
8708;SDS011;4391;48.678;9.280;2024-02-15T13:40:23;4.22;;;1.10;;
8708;SDS011;4391;48.678;9.280;2024-02-15T13:42:51;3.72;;;0.95;;
8708;SDS011;4391;48.678;9.280;2024-02-15T13:45:19;4.37;;;1.20;;
8708;SDS011;4391;48.678;9.280;2024-02-15T13:47:49;12.95;;;4.03;;
8708;SDS011;4391;48.678;9.280;2024-02-15T13:50:18;5.57;;;1.80;;
8708;SDS011;4391;48.678;9.280;2024-02-15T13:52:45;4.88;;;1.10;;
8708;SDS011;4391;48.678;9.280;2024-02-15T13:55:14;4.15;;;1.10;;
8708;SDS011;4391;48.678;9.280;2024-02-15T13:57:43;5.27;;;1.43;;
8708;SDS011;4391;48.678;9.280;2024-02-15T14:00:12;5.32;;;1.30;;
8708;SDS011;4391;48.678;9.280;2024-02-15T14:02:46;5.07;;;1.23;;
8708;SDS011;4391;48.678;9.280;2024-02-15T14:05:13;3.97;;;1.13;;
8708;SDS011;4391;48.678;9.280;2024-02-15T14:07:44;5.15;;;1.48;;
8708;SDS011;4391;48.678;9.280;2024-02-15T14:10:14;5.20;;;1.30;;
8708;SDS011;4391;48.678;9.280;2024-02-15T14:12:43;11.98;;;2.60;;
8708;SDS011;4391;48.678;9.280;2024-02-15T14:15:10;7.90;;;2.03;;
8708;SDS011;4391;48.678;9.280;2024-02-15T14:17:37;4.50;;;1.55;;
8708;SDS011;4391;48.678;9.280;2024-02-15T14:20:04;3.33;;;1.08;;
8708;SDS011;4391;48.678;9.280;2024-02-15T14:22:33;4.70;;;1.20;;
8708;SDS011;4391;48.678;9.280;2024-02-15T14:25:00;4.35;;;1.15;;
8708;SDS011;4391;48.678;9.280;2024-02-15T14:27:30;5.28;;;1.08;;
8708;SDS011;4391;48.678;9.280;2024-02-15T14:29:58;5.68;;;1.13;;
8708;SDS011;4391;48.678;9.280;2024-02-15T14:32:42;4.57;;;1.30;;
8708;SDS011;4391;48.678;9.280;2024-02-15T14:35:28;2.93;;;1.00;;
8708;SDS011;4391;48.678;9.280;2024-02-15T14:37:59;5.00;;;1.10;;
8708;SDS011;4391;48.678;9.280;2024-02-15T14:40:28;3.47;;;0.80;;
8708;SDS011;4391;48.678;9.280;2024-02-15T14:42:56;10.25;;;2.20;;
8708;SDS011;4391;48.678;9.280;2024-02-15T14:45:23;5.93;;;1.35;;
8708;SDS011;4391;48.678;9.280;2024-02-15T14:47:49;6.13;;;1.50;;
8708;SDS011;4391;48.678;9.280;2024-02-15T14:50:16;3.90;;;1.00;;
8708;SDS011;4391;48.678;9.280;2024-02-15T14:52:45;6.07;;;1.10;;
8708;SDS011;4391;48.678;9.280;2024-02-15T14:55:13;4.22;;;1.00;;
8708;SDS011;4391;48.678;9.280;2024-02-15T14:57:40;3.35;;;0.90;;
8708;SDS011;4391;48.678;9.280;2024-02-15T15:00:09;5.00;;;1.07;;
8708;SDS011;4391;48.678;9.280;2024-02-15T15:02:38;17.85;;;5.65;;
8708;SDS011;4391;48.678;9.280;2024-02-15T15:05:06;6.13;;;1.77;;
8708;SDS011;4391;48.678;9.280;2024-02-15T15:07:51;5.90;;;1.17;;
8708;SDS011;4391;48.678;9.280;2024-02-15T15:10:35;4.25;;;1.50;;
8708;SDS011;4391;48.678;9.280;2024-02-15T15:13:20;3.87;;;1.30;;
8708;SDS011;4391;48.678;9.280;2024-02-15T15:15:49;3.67;;;1.00;;
8708;SDS011;4391;48.678;9.280;2024-02-15T15:18:16;6.65;;;1.00;;
8708;SDS011;4391;48.678;9.280;2024-02-15T15:20:43;4.10;;;1.15;;
8708;SDS011;4391;48.678;9.280;2024-02-15T15:23:10;6.20;;;1.70;;
8708;SDS011;4391;48.678;9.280;2024-02-15T15:25:38;5.47;;;1.90;;
8708;SDS011;4391;48.678;9.280;2024-02-15T15:28:06;5.82;;;1.80;;
8708;SDS011;4391;48.678;9.280;2024-02-15T15:30:33;6.70;;;2.10;;
8708;SDS011;4391;48.678;9.280;2024-02-15T15:33:02;4.32;;;1.85;;
8708;SDS011;4391;48.678;9.280;2024-02-15T15:35:30;5.93;;;1.45;;
8708;SDS011;4391;48.678;9.280;2024-02-15T15:37:56;5.17;;;1.30;;
8708;SDS011;4391;48.678;9.280;2024-02-15T15:40:24;4.40;;;1.40;;